Time;durP1;ratioP1;P1;durP2;ratioP2;P2;SDS_P1;SDS_P2;PMS_P1;PMS_P2;Temp;Humidity;BMP_temperature;BMP_pressure;BME280_temperature;BME280_humidity;BME280_pressure;Samples;Min_cycle;Max_cycle;Signal;HPM_P1;HPM_P2
2022/03/18 00:00:29;;;;;;;7.85;2.90;;;1.90;99.90;;;;;;5120863;27;20106;-67
2022/03/18 00:02:54;;;;;;;7.97;3.08;;;1.80;99.90;;;;;;5122369;27;20118;-67
2022/03/18 00:05:22;;;;;;;8.43;3.05;;;2.00;99.90;;;;;;5120696;27;20134;-67
2022/03/18 00:07:47;;;;;;;15.52;3.95;;;1.90;99.90;;;;;;5126060;27;20062;-67
2022/03/18 00:10:14;;;;;;;7.25;2.65;;;2.00;99.90;;;;;;5128851;27;20474;-67
2022/03/18 00:12:41;;;;;;;7.68;2.70;;;2.10;99.90;;;;;;5127163;27;20441;-67
2022/03/18 00:15:11;;;;;;;13.20;3.58;;;2.00;99.90;;;;;;5130121;27;20034;-67
2022/03/18 00:17:37;;;;;;;6.95;3.03;;;1.90;99.90;;;;;;5113650;27;20035;-67
2022/03/18 00:20:07;;;;;;;12.20;2.70;;;1.80;99.90;;;;;;5108453;27;20027;-67
2022/03/18 00:22:33;;;;;;;12.25;3.58;;;1.70;99.90;;;;;;5101401;28;20038;-67
2022/03/18 00:24:59;;;;;;;7.80;3.45;;;1.70;99.90;;;;;;5119507;27;20030;-67
2022/03/18 00:27:26;;;;;;;5.07;2.92;;;1.60;99.90;;;;;;5121357;27;20489;-67
2022/03/18 00:29:52;;;;;;;5.05;2.05;;;1.90;99.90;;;;;;5130089;27;20110;-68
2022/03/18 00:32:18;;;;;;;8.10;2.72;;;2.10;99.90;;;;;;5108321;28;20112;-67
2022/03/18 00:34:44;;;;;;;7.65;2.70;;;2.00;99.90;;;;;;5138252;27;20087;-67
2022/03/18 00:37:09;;;;;;;8.48;3.03;;;2.00;99.90;;;;;;5131165;27;20023;-67
2022/03/18 00:39:35;;;;;;;10.63;4.35;;;1.80;99.90;;;;;;5133001;27;20035;-67
2022/03/18 00:42:01;;;;;;;6.32;2.80;;;1.70;99.90;;;;;;5141706;27;20038;-67
2022/03/18 00:44:27;;;;;;;19.77;2.90;;;1.60;99.90;;;;;;5120277;27;20036;-67
2022/03/18 00:46:53;;;;;;;9.88;3.72;;;1.50;99.90;;;;;;5123753;27;20024;-67
2022/03/18 00:52:05;;;;;;;4.78;2.58;;;1.40;99.90;;;;;;5120002;27;20038;-67
2022/03/18 00:54:36;;;;;;;6.70;3.03;;;1.50;99.90;;;;;;5126404;27;20295;-67
2022/03/18 00:57:02;;;;;;;19.95;3.42;;;1.60;99.90;;;;;;5122781;27;20031;-67
2022/03/18 00:59:28;;;;;;;8.32;2.88;;;1.50;99.90;;;;;;5096530;28;20563;-67
2022/03/18 01:01:55;;;;;;;5.97;2.42;;;1.40;99.90;;;;;;5092189;28;20028;-67
2022/03/18 01:04:21;;;;;;;6.95;2.28;;;1.50;99.90;;;;;;5112618;28;20055;-67
2022/03/18 01:06:46;;;;;;;5.72;2.85;;;1.60;99.90;;;;;;5101890;28;20051;-67
2022/03/18 01:09:12;;;;;;;11.88;4.18;;;1.50;99.90;;;;;;5096868;28;20050;-67
2022/03/18 01:11:38;;;;;;;13.55;3.53;;;1.40;99.90;;;;;;5114182;27;20019;-67
2022/03/18 01:14:03;;;;;;;5.43;2.50;;;1.40;99.90;;;;;;5098117;27;20050;-67
2022/03/18 01:16:29;;;;;;;6.82;2.42;;;1.40;99.90;;;;;;5100928;27;20028;-67
2022/03/18 01:18:55;;;;;;;8.80;2.30;;;1.30;99.90;;;;;;5119325;27;20042;-67
2022/03/18 01:21:20;;;;;;;7.50;3.03;;;1.60;99.90;;;;;;5121893;27;20053;-67
2022/03/18 01:23:46;;;;;;;4.70;2.13;;;1.50;99.90;;;;;;5098988;27;20031;-67
2022/03/18 01:26:12;;;;;;;5.65;2.35;;;1.40;99.90;;;;;;5101554;27;20548;-67
2022/03/18 01:28:37;;;;;;;6.55;2.50;;;1.30;99.90;;;;;;5119590;27;20051;-67
2022/03/18 01:31:03;;;;;;;6.38;2.28;;;1.20;99.90;;;;;;5114770;27;20475;-67
2022/03/18 01:33:28;;;;;;;3.10;1.60;;;1.30;99.90;;;;;;5119124;27;20483;-67
2022/03/18 01:35:54;;;;;;;4.68;2.17;;;1.20;99.90;;;;;;5117554;27;20099;-67
2022/03/18 01:38:19;;;;;;;5.47;2.10;;;1.20;99.90;;;;;;5115712;27;20105;-67
2022/03/18 01:40:45;;;;;;;9.65;3.80;;;1.50;99.90;;;;;;5127145;27;20479;-67
2022/03/18 01:43:12;;;;;;;5.07;1.55;;;1.60;99.90;;;;;;5121020;27;20023;-68
2022/03/18 01:45:38;;;;;;;12.25;2.97;;;1.80;99.90;;;;;;5118171;27;20019;-67
2022/03/18 01:48:05;;;;;;;8.75;2.08;;;1.50;99.90;;;;;;5129582;27;20518;-67
2022/03/18 01:50:32;;;;;;;5.45;1.90;;;1.40;99.90;;;;;;5117236;27;20036;-67
2022/03/18 01:52:59;;;;;;;5.82;2.42;;;1.20;99.90;;;;;;5101169;27;20019;-67
2022/03/18 01:55:25;;;;;;;6.65;2.70;;;1.20;99.90;;;;;;5117486;27;20026;-67
2022/03/18 01:57:51;;;;;;;4.40;2.17;;;1.10;99.90;;;;;;5121352;27;20062;-67
2022/03/18 02:00:19;;;;;;;4.95;2.35;;;1.10;99.90;;;;;;5115511;27;20437;-67
2022/03/18 02:02:45;;;;;;;3.42;1.60;;;1.00;99.90;;;;;;5106052;27;20020;-67
2022/03/18 02:05:11;;;;;;;2.90;1.45;;;0.90;99.90;;;;;;5121389;27;20015;-67
2022/03/18 02:07:38;;;;;;;6.88;2.25;;;1.10;99.90;;;;;;5101673;28;20115;-67
2022/03/18 02:10:04;;;;;;;6.40;2.40;;;0.90;99.90;;;;;;5117605;27;20016;-67
2022/03/18 02:12:30;;;;;;;12.18;2.97;;;1.00;99.90;;;;;;5114715;27;20024;-67
2022/03/18 02:14:56;;;;;;;6.57;2.15;;;1.00;99.90;;;;;;5117550;27;20392;-67
2022/03/18 02:17:21;;;;;;;11.57;2.10;;;1.10;99.90;;;;;;5117530;27;20023;-67
2022/03/18 02:19:48;;;;;;;6.47;2.25;;;1.30;99.90;;;;;;5119178;27;20517;-67
2022/03/18 02:22:17;;;;;;;4.63;1.85;;;1.30;99.90;;;;;;5099746;27;20091;-67
2022/03/18 02:24:45;;;;;;;10.80;3.05;;;1.20;99.90;;;;;;5119763;27;20073;-67
2022/03/18 02:27:11;;;;;;;14.25;3.10;;;1.10;99.90;;;;;;5097572;27;20031;-67
2022/03/18 02:29:38;;;;;;;7.00;2.05;;;1.00;99.90;;;;;;5110828;27;20426;-68
2022/03/18 02:32:05;;;;;;;7.53;2.38;;;0.90;99.90;;;;;;5122631;27;20154;-67
2022/03/18 02:34:31;;;;;;;4.65;2.05;;;0.90;99.90;;;;;;5120723;27;20042;-67
2022/03/18 02:36:57;;;;;;;4.38;2.30;;;0.90;99.90;;;;;;5114525;27;20464;-67
2022/03/18 02:39:23;;;;;;;5.78;2.10;;;0.90;99.90;;;;;;5095527;28;20028;-67
2022/03/18 02:41:49;;;;;;;8.18;2.70;;;0.80;99.90;;;;;;5115618;27;20077;-67
2022/03/18 02:44:14;;;;;;;3.85;1.95;;;0.90;99.90;;;;;;5099705;27;20015;-68
2022/03/18 02:46:40;;;;;;;4.78;1.70;;;0.70;99.90;;;;;;5103191;27;20099;-67
2022/03/18 02:49:07;;;;;;;6.80;3.50;;;0.80;99.90;;;;;;5120973;27;20053;-67
2022/03/18 02:51:36;;;;;;;3.65;1.58;;;0.80;99.90;;;;;;5119117;27;20015;-67
2022/03/18 02:54:02;;;;;;;6.05;2.08;;;0.70;99.90;;;;;;5104173;27;20491;-67
2022/03/18 02:56:28;;;;;;;6.03;2.60;;;0.70;99.90;;;;;;5112974;27;20098;-67
2022/03/18 02:58:53;;;;;;;7.95;1.83;;;0.60;99.90;;;;;;5112467;27;20126;-67
2022/03/18 03:01:20;;;;;;;3.90;2.13;;;0.50;99.90;;;;;;5119201;27;20035;-67
2022/03/18 03:03:46;;;;;;;6.35;3.28;;;0.50;99.90;;;;;;5115189;27;20487;-68
2022/03/18 03:08:55;;;;;;;5.38;1.80;;;0.50;99.90;;;;;;5114860;27;20054;-67
2022/03/18 03:11:22;;;;;;;2.55;1.30;;;0.50;99.90;;;;;;5119430;27;20054;-67
2022/03/18 03:13:51;;;;;;;2.13;1.52;;;0.30;99.90;;;;;;5114386;27;20022;-67
2022/03/18 03:16:18;;;;;;;11.88;2.17;;;0.60;99.90;;;;;;5113345;27;20032;-67
2022/03/18 03:18:45;;;;;;;3.15;1.65;;;0.50;99.90;;;;;;5102051;27;20050;-67
2022/03/18 03:21:10;;;;;;;4.55;1.83;;;0.40;99.90;;;;;;5094948;28;20016;-67
2022/03/18 03:23:36;;;;;;;7.63;2.38;;;0.40;99.90;;;;;;5106159;27;20027;-67
2022/03/18 03:26:02;;;;;;;5.60;2.20;;;0.50;99.90;;;;;;5115044;27;20028;-67
2022/03/18 03:28:28;;;;;;;2.78;1.73;;;0.50;99.90;;;;;;5115808;27;20061;-67
2022/03/18 03:30:53;;;;;;;6.82;3.13;;;0.70;99.90;;;;;;5094648;27;20023;-67
2022/03/18 03:33:19;;;;;;;3.55;1.77;;;0.80;99.90;;;;;;5094607;27;20050;-67
2022/03/18 03:35:45;;;;;;;6.80;1.77;;;0.70;99.90;;;;;;5112497;27;20024;-68
2022/03/18 03:38:13;;;;;;;3.30;1.58;;;0.70;99.90;;;;;;5119729;27;20024;-67
2022/03/18 03:40:40;;;;;;;3.55;2.08;;;0.60;99.90;;;;;;5119488;27;20385;-67
2022/03/18 03:43:06;;;;;;;11.27;3.28;;;0.60;99.90;;;;;;5120274;27;20493;-67
2022/03/18 03:45:32;;;;;;;16.27;2.90;;;0.60;99.90;;;;;;5101310;27;20027;-67
2022/03/18 03:47:57;;;;;;;7.15;2.25;;;0.50;99.90;;;;;;5125365;27;20019;-67
2022/03/18 03:50:23;;;;;;;7.80;2.10;;;0.60;99.90;;;;;;5097892;27;20023;-67
2022/03/18 03:52:49;;;;;;;2.00;1.40;;;0.70;99.90;;;;;;5116434;27;20055;-67
2022/03/18 03:55:14;;;;;;;8.13;2.05;;;0.80;99.90;;;;;;5104956;28;20102;-67
2022/03/18 03:57:40;;;;;;;4.55;2.38;;;0.70;99.90;;;;;;5117289;27;20635;-67
2022/03/18 04:00:11;;;;;;;5.85;2.22;;;0.60;99.90;;;;;;5103893;28;20454;-67
2022/03/18 04:02:37;;;;;;;3.53;1.50;;;0.60;99.90;;;;;;5103931;27;20518;-67
2022/03/18 04:05:07;;;;;;;6.80;2.90;;;0.60;99.90;;;;;;5106244;28;20028;-67
2022/03/18 04:07:34;;;;;;;;;;;0.60;99.90;;;;;;5099159;27;20136;-67
2022/03/18 04:10:00;;;;;;;8.77;2.88;;;0.40;99.90;;;;;;5116847;27;19960;-67
2022/03/18 04:12:26;;;;;;;4.53;1.73;;;0.50;99.90;;;;;;5113415;27;20426;-67
2022/03/18 04:14:51;;;;;;;4.80;2.65;;;0.30;99.90;;;;;;5113905;27;20035;-67
2022/03/18 04:17:17;;;;;;;6.90;2.53;;;0.30;99.90;;;;;;5120121;27;20023;-67
2022/03/18 04:19:43;;;;;;;3.10;1.55;;;0.10;99.90;;;;;;5111932;27;20058;-67
2022/03/18 04:22:09;;;;;;;7.72;3.08;;;0.00;99.90;;;;;;5101205;28;20573;-67
2022/03/18 04:24:35;;;;;;;4.57;2.22;;;0.10;99.90;;;;;;5113122;27;20027;-67
2022/03/18 04:27:00;;;;;;;7.22;2.70;;;0.00;99.90;;;;;;5097437;28;20076;-67
2022/03/18 04:29:26;;;;;;;5.30;1.95;;;-0.20;99.90;;;;;;5112799;27;20051;-67
2022/03/18 04:31:52;;;;;;;3.38;1.80;;;-0.30;99.90;;;;;;5112884;28;20035;-67
2022/03/18 04:34:17;;;;;;;14.10;2.10;;;-0.30;99.90;;;;;;5110989;28;20447;-67
2022/03/18 04:36:43;;;;;;;6.38;2.17;;;-0.20;99.90;;;;;;5114108;28;20522;-67
2022/03/18 04:39:09;;;;;;;6.75;2.20;;;-0.20;99.90;;;;;;5116817;28;20048;-67
2022/03/18 04:41:35;;;;;;;10.13;2.08;;;-0.20;99.90;;;;;;5122695;27;20038;-67
2022/03/18 04:44:03;;;;;;;4.38;2.40;;;0.00;99.90;;;;;;5119701;27;20031;-67
2022/03/18 04:46:31;;;;;;;3.55;1.63;;;0.10;99.90;;;;;;5108732;27;20031;-67
2022/03/18 04:48:58;;;;;;;6.50;2.47;;;0.20;99.90;;;;;;5123842;27;20027;-67
2022/03/18 04:51:24;;;;;;;9.30;3.20;;;0.50;99.90;;;;;;5116587;27;20098;-67
2022/03/18 04:53:50;;;;;;;6.15;2.50;;;0.70;99.90;;;;;;5105095;27;20161;-67
2022/03/18 04:59:00;;;;;;;6.68;2.72;;;0.80;99.90;;;;;;5121498;27;20323;-67
2022/03/18 05:01:26;;;;;;;7.10;3.05;;;1.00;99.90;;;;;;5106154;27;20399;-67
2022/03/18 05:03:52;;;;;;;6.05;2.63;;;1.00;99.90;;;;;;5116354;27;20046;-67
2022/03/18 05:06:18;;;;;;;6.32;2.90;;;1.00;99.90;;;;;;5107347;27;20471;-67
2022/03/18 05:08:44;;;;;;;3.63;1.63;;;0.80;99.90;;;;;;5119586;27;20024;-67
2022/03/18 05:11:12;;;;;;;5.18;2.28;;;0.60;99.90;;;;;;5118244;27;20038;-67
2022/03/18 05:13:38;;;;;;;5.75;2.88;;;0.40;99.90;;;;;;5120432;27;20479;-67
2022/03/18 05:16:04;;;;;;;8.80;3.67;;;0.30;99.90;;;;;;5118603;27;20023;-67
2022/03/18 05:18:30;;;;;;;5.07;2.35;;;0.60;99.90;;;;;;5118686;27;20035;-67
2022/03/18 05:20:56;;;;;;;6.93;3.20;;;0.80;99.90;;;;;;5121007;27;20563;-67
2022/03/18 05:23:21;;;;;;;15.40;3.13;;;0.90;99.90;;;;;;5120219;27;20114;-67
2022/03/18 05:25:47;;;;;;;5.25;2.80;;;0.70;99.90;;;;;;5117851;27;20024;-67
2022/03/18 05:28:13;;;;;;;6.30;2.25;;;0.60;99.90;;;;;;5118651;27;20488;-67
2022/03/18 05:30:39;;;;;;;8.88;3.22;;;0.40;99.90;;;;;;5118574;27;20024;-67
2022/03/18 05:33:05;;;;;;;6.22;2.80;;;0.40;99.90;;;;;;5102328;28;20386;-68
2022/03/18 05:35:31;;;;;;;3.45;2.13;;;0.50;99.90;;;;;;5116730;27;20020;-68
2022/03/18 05:37:56;;;;;;;10.40;2.53;;;0.30;99.90;;;;;;5104672;27;20106;-67
2022/03/18 05:40:22;;;;;;;5.65;2.88;;;0.30;99.90;;;;;;5118872;27;20027;-67
2022/03/18 05:42:47;;;;;;;5.70;2.25;;;0.20;99.90;;;;;;5121344;27;20029;-67
2022/03/18 05:45:14;;;;;;;6.53;2.28;;;-0.10;99.90;;;;;;5119038;27;20050;-67
2022/03/18 05:47:40;;;;;;;4.20;2.42;;;-0.10;99.90;;;;;;5122766;27;20026;-67
2022/03/18 05:50:07;;;;;;;16.70;2.53;;;0.10;99.90;;;;;;5112318;27;20035;-67
2022/03/18 05:52:36;;;;;;;5.45;2.50;;;0.00;99.90;;;;;;5120238;27;20027;-67
2022/03/18 05:55:02;;;;;;;8.30;3.45;;;-0.10;99.90;;;;;;5099929;28;20024;-67
2022/03/18 05:57:29;;;;;;;4.60;1.98;;;-0.10;99.90;;;;;;5109400;27;20038;-67
2022/03/18 05:59:57;;;;;;;3.72;1.67;;;-0.10;99.90;;;;;;5099877;27;20111;-67
2022/03/18 06:02:23;;;;;;;7.18;2.90;;;-0.20;99.90;;;;;;5113467;27;20059;-67
2022/03/18 06:04:49;;;;;;;4.53;2.38;;;-0.20;99.90;;;;;;5116021;27;20073;-67
2022/03/18 06:07:15;;;;;;;5.85;2.90;;;0.30;99.90;;;;;;5120733;27;20046;-67
2022/03/18 06:12:25;;;;;;;7.95;3.45;;;-0.10;99.90;;;;;;5124282;27;20506;-67
2022/03/18 06:14:51;;;;;;;5.68;3.05;;;-0.20;99.90;;;;;;5104033;27;20020;-67
2022/03/18 06:17:16;;;;;;;5.97;2.58;;;-0.30;99.90;;;;;;5106837;27;20504;-67
2022/03/18 06:19:42;;;;;;;6.00;2.53;;;-0.30;99.90;;;;;;5138861;27;20398;-67
2022/03/18 06:22:08;;;;;;;6.53;2.53;;;-0.20;99.90;;;;;;5119791;27;20028;-67
2022/03/18 06:24:34;;;;;;;6.85;2.97;;;0.00;99.90;;;;;;5135547;27;20034;-67
2022/03/18 06:27:01;;;;;;;6.50;3.15;;;0.10;99.90;;;;;;5119477;27;20065;-67
2022/03/18 06:29:28;;;;;;;5.95;2.72;;;0.10;99.90;;;;;;5119628;27;20060;-68
2022/03/18 06:31:54;;;;;;;5.65;2.38;;;0.10;99.90;;;;;;5119461;27;20020;-67
2022/03/18 06:34:22;;;;;;;8.50;3.17;;;0.10;99.90;;;;;;5122466;27;20023;-67
2022/03/18 06:36:50;;;;;;;4.57;2.03;;;0.20;99.90;;;;;;5120034;27;20099;-67
2022/03/18 06:39:16;;;;;;;5.68;2.80;;;0.30;99.90;;;;;;5118156;27;20026;-67
2022/03/18 06:41:41;;;;;;;6.60;3.15;;;0.30;99.90;;;;;;5103276;27;20037;-67
2022/03/18 06:44:08;;;;;;;5.95;2.78;;;0.30;99.90;;;;;;5101764;27;20027;-67
2022/03/18 06:46:35;;;;;;;6.72;2.88;;;0.50;99.90;;;;;;5121429;27;20031;-67
2022/03/18 06:49:01;;;;;;;6.95;3.05;;;0.60;99.90;;;;;;5104930;27;20023;-67
2022/03/18 06:51:26;;;;;;;6.72;2.67;;;0.60;99.90;;;;;;5119320;27;20085;-67
2022/03/18 06:53:52;;;;;;;12.45;3.63;;;0.60;99.90;;;;;;5116057;27;20042;-67
2022/03/18 06:56:18;;;;;;;3.72;1.92;;;0.80;99.90;;;;;;5114128;27;20039;-67
2022/03/18 06:58:44;;;;;;;12.02;3.58;;;0.80;99.90;;;;;;5116173;27;20062;-67
2022/03/18 07:01:09;;;;;;;9.20;3.67;;;1.00;99.90;;;;;;5119461;27;20019;-67
2022/03/18 07:03:35;;;;;;;8.75;3.30;;;1.20;99.90;;;;;;5118928;27;20038;-67
2022/03/18 07:06:01;;;;;;;9.85;2.78;;;1.30;99.90;;;;;;5114519;27;20098;-67
2022/03/18 07:08:26;;;;;;;9.80;3.75;;;1.30;99.90;;;;;;5097901;28;20437;-67
2022/03/18 07:10:52;;;;;;;8.68;3.35;;;1.40;99.90;;;;;;5118956;27;20024;-67
2022/03/18 07:13:18;;;;;;;9.73;3.63;;;1.60;99.90;;;;;;5116225;27;20028;-67
2022/03/18 07:15:43;;;;;;;9.75;2.80;;;1.80;99.90;;;;;;5132402;27;20024;-67
2022/03/18 07:18:10;;;;;;;9.43;3.17;;;1.90;99.90;;;;;;5122347;27;20422;-67
2022/03/18 07:20:38;;;;;;;6.57;3.47;;;2.00;99.90;;;;;;5119852;27;20024;-67
2022/03/18 07:23:12;;;;;;;9.13;3.42;;;2.10;99.90;;;;;;5114592;27;20023;-67
2022/03/18 07:25:43;;;;;;;13.95;5.07;;;2.10;99.90;;;;;;5096852;27;20020;-67
2022/03/18 07:28:11;;;;;;;7.13;3.40;;;2.30;99.90;;;;;;5118390;27;20040;-67
2022/03/18 07:30:38;;;;;;;8.52;4.53;;;2.40;99.90;;;;;;5120351;27;20022;-67
2022/03/18 07:33:04;;;;;;;10.90;3.97;;;2.60;99.90;;;;;;5119514;27;20026;-67
2022/03/18 07:35:30;;;;;;;7.60;4.65;;;2.70;99.90;;;;;;5118782;27;20019;-68
2022/03/18 07:37:56;;;;;;;15.77;4.50;;;2.80;99.90;;;;;;5117919;27;20043;-67
2022/03/18 07:40:23;;;;;;;16.73;6.38;;;2.90;99.90;;;;;;5120102;27;20031;-67
2022/03/18 07:42:53;;;;;;;22.17;6.88;;;3.00;99.90;;;;;;5112611;27;20097;-67
2022/03/18 07:45:21;;;;;;;11.73;5.32;;;3.20;99.90;;;;;;5117806;27;20390;-67
2022/03/18 07:47:49;;;;;;;13.68;5.45;;;3.30;99.90;;;;;;5120814;27;20023;-67
2022/03/18 07:50:20;;;;;;;12.60;4.72;;;3.70;99.90;;;;;;5115457;27;20494;-67
2022/03/18 07:52:49;;;;;;;16.92;5.82;;;3.80;99.90;;;;;;5110328;27;20035;-66
2022/03/18 07:55:18;;;;;;;18.23;6.87;;;3.90;99.90;;;;;;5114379;27;20061;-66
2022/03/18 07:57:44;;;;;;;14.00;7.30;;;4.20;99.90;;;;;;5115518;27;20024;-66
2022/03/18 08:00:12;;;;;;;19.05;6.57;;;4.60;99.90;;;;;;5110629;27;20054;-66
2022/03/18 08:02:39;;;;;;;12.55;6.15;;;4.60;99.90;;;;;;5114943;27;20335;-66
2022/03/18 08:05:05;;;;;;;15.55;7.30;;;4.70;99.90;;;;;;5115751;27;20068;-66
2022/03/18 08:07:33;;;;;;;22.88;9.57;;;5.10;99.90;;;;;;5114432;27;20035;-66
2022/03/18 08:09:59;;;;;;;14.32;5.70;;;5.20;99.90;;;;;;5115445;27;20120;-66
2022/03/18 08:12:28;;;;;;;14.38;6.10;;;5.20;99.90;;;;;;5113948;27;20421;-66
2022/03/18 08:15:00;;;;;;;16.80;6.50;;;5.30;99.90;;;;;;5113218;27;20023;-67
2022/03/18 08:17:26;;;;;;;11.70;5.70;;;5.80;99.90;;;;;;5117387;27;20033;-67
2022/03/18 08:19:52;;;;;;;9.32;5.32;;;5.90;99.90;;;;;;5116981;27;20032;-67
2022/03/18 08:22:22;;;;;;;16.60;6.32;;;6.00;99.90;;;;;;5112825;27;20031;-69
2022/03/18 08:24:49;;;;;;;12.50;4.78;;;6.10;99.90;;;;;;5118570;27;20126;-67
2022/03/18 08:27:15;;;;;;;19.73;5.88;;;6.30;99.90;;;;;;5098768;28;20440;-67
2022/03/18 08:29:43;;;;;;;12.57;5.28;;;6.30;99.90;;;;;;5108119;27;20055;-67
2022/03/18 08:32:13;;;;;;;13.82;3.78;;;6.70;99.90;;;;;;5112203;27;20051;-67
2022/03/18 08:34:39;;;;;;;26.30;5.25;;;6.90;99.90;;;;;;5115905;28;20036;-67
2022/03/18 08:37:06;;;;;;;13.50;5.72;;;7.30;99.90;;;;;;5098871;28;20031;-67
2022/03/18 08:39:35;;;;;;;13.45;4.88;;;7.80;99.90;;;;;;5113089;28;20036;-67
2022/03/18 08:42:01;;;;;;;7.77;2.80;;;8.40;99.90;;;;;;5097257;28;20487;-67
2022/03/18 08:44:26;;;;;;;9.00;3.35;;;8.90;99.90;;;;;;5118408;28;20344;-68
2022/03/18 08:46:53;;;;;;;9.32;3.92;;;9.40;99.90;;;;;;5106694;27;20376;-67
2022/03/18 08:49:18;;;;;;;7.22;2.75;;;9.70;99.90;;;;;;5116226;27;20023;-67
2022/03/18 08:51:44;;;;;;;11.02;2.45;;;10.30;99.90;;;;;;5126151;27;20019;-67
2022/03/18 08:54:10;;;;;;;6.65;2.83;;;10.90;99.90;;;;;;5108072;27;20106;-67
2022/03/18 08:56:35;;;;;;;6.45;1.95;;;10.80;99.90;;;;;;5096246;27;20052;-67
2022/03/18 08:59:06;;;;;;;7.55;2.08;;;11.30;99.90;;;;;;5125050;27;20329;-68
2022/03/18 09:01:33;;;;;;;6.05;2.25;;;11.40;99.90;;;;;;5115916;27;20431;-68
2022/03/18 09:03:59;;;;;;;7.30;2.10;;;11.70;99.90;;;;;;5102794;28;20058;-68
2022/03/18 09:06:24;;;;;;;5.85;1.65;;;12.10;99.90;;;;;;5103992;27;20066;-68
2022/03/18 09:08:50;;;;;;;6.28;1.90;;;13.20;99.90;;;;;;5119792;27;20030;-68
2022/03/18 09:11:16;;;;;;;6.50;2.03;;;13.20;99.90;;;;;;5119526;27;20046;-68
2022/03/18 09:13:41;;;;;;;7.28;2.33;;;13.90;99.90;;;;;;5121557;27;20042;-68
2022/03/18 09:16:07;;;;;;;5.00;1.92;;;13.20;99.60;;;;;;5097920;27;20031;-68
2022/03/18 09:18:33;;;;;;;5.80;1.88;;;13.20;99.90;;;;;;5120703;27;20494;-67
2022/03/18 09:20:59;;;;;;;2.25;0.95;;;12.90;98.90;;;;;;5098203;27;20031;-67
2022/03/18 09:23:25;;;;;;;3.45;1.20;;;12.60;99.90;;;;;;5117201;27;20034;-67
2022/03/18 09:25:51;;;;;;;4.65;1.38;;;11.90;99.20;;;;;;5120298;27;20053;-68
2022/03/18 09:28:16;;;;;;;3.33;1.33;;;12.10;98.90;;;;;;5117430;27;20114;-68
2022/03/18 09:30:42;;;;;;;4.80;1.73;;;12.90;99.20;;;;;;5112427;27;20043;-68
2022/03/18 09:33:09;;;;;;;11.38;1.65;;;12.00;98.60;;;;;;5117277;27;20027;-67
2022/03/18 09:35:36;;;;;;;5.43;1.70;;;11.30;99.90;;;;;;5116041;27;20027;-67
2022/03/18 09:38:02;;;;;;;6.43;1.63;;;10.60;99.90;;;;;;5117466;27;20019;-67
2022/03/18 09:40:28;;;;;;;5.32;1.63;;;10.70;99.90;;;;;;5097710;27;20023;-68
2022/03/18 09:43:00;;;;;;;6.82;2.15;;;11.10;99.90;;;;;;5115997;27;20042;-67
2022/03/18 09:45:30;;;;;;;3.97;1.58;;;10.60;99.90;;;;;;5117382;27;20210;-67
2022/03/18 09:48:06;;;;;;;5.18;1.67;;;10.80;99.90;;;;;;5118044;27;20076;-67
2022/03/18 09:50:32;;;;;;;3.58;1.23;;;11.40;99.90;;;;;;5102772;27;20093;-67
2022/03/18 09:52:58;;;;;;;5.63;1.70;;;13.30;99.50;;;;;;5117216;27;20027;-67
2022/03/18 09:55:24;;;;;;;6.40;1.67;;;12.20;98.10;;;;;;5096967;28;20053;-67
2022/03/18 09:57:51;;;;;;;3.92;1.52;;;12.00;98.20;;;;;;5119312;27;20027;-67
2022/03/18 10:00:16;;;;;;;6.20;1.60;;;12.50;97.20;;;;;;5110371;27;20081;-67
2022/03/18 10:02:42;;;;;;;5.10;1.20;;;12.40;97.20;;;;;;5119412;27;20047;-67
2022/03/18 10:05:15;;;;;;;4.85;1.50;;;12.40;97.10;;;;;;5100689;28;20019;-67
2022/03/18 10:07:53;;;;;;;3.97;1.23;;;12.40;97.10;;;;;;5117563;27;20015;-67
2022/03/18 10:10:20;;;;;;;3.92;1.38;;;14.00;96.90;;;;;;5117041;27;20120;-67
2022/03/18 10:12:51;;;;;;;5.75;1.30;;;13.00;95.60;;;;;;5108160;27;20096;-67
2022/03/18 10:15:24;;;;;;;3.88;1.20;;;11.90;97.20;;;;;;5095463;27;20106;-67
2022/03/18 10:17:52;;;;;;;4.78;1.20;;;12.60;98.60;;;;;;5098505;28;20080;-67
2022/03/18 10:20:29;;;;;;;5.05;1.20;;;13.30;96.80;;;;;;5116618;27;20482;-68
2022/03/18 10:22:57;;;;;;;5.50;1.60;;;13.80;94.60;;;;;;5099151;27;20035;-67
2022/03/18 10:25:37;;;;;;;7.43;2.00;;;14.40;94.30;;;;;;5118434;27;20408;-68
2022/03/18 10:28:05;;;;;;;5.05;1.35;;;15.30;93.90;;;;;;5115748;27;20042;-68
2022/03/18 10:30:31;;;;;;;2.10;1.00;;;15.10;92.10;;;;;;5115360;27;20039;-67
2022/03/18 10:32:57;;;;;;;2.58;1.35;;;14.00;93.00;;;;;;5119607;27;20023;-67
2022/03/18 10:38:35;;;;;;;4.45;1.30;;;12.60;93.50;;;;;;5109279;27;20084;-67
2022/03/18 10:41:23;;;;;;;5.85;1.40;;;12.90;93.70;;;;;;5114532;27;20409;-67
2022/03/18 10:43:51;;;;;;;4.35;1.52;;;12.60;94.20;;;;;;5115180;27;20030;-67
2022/03/18 10:46:17;;;;;;;5.28;1.70;;;13.40;93.70;;;;;;5118589;27;20030;-67
2022/03/18 10:49:04;;;;;;;3.88;1.50;;;13.10;94.80;;;;;;5128094;27;20028;-67
2022/03/18 10:51:30;;;;;;;4.55;1.48;;;14.20;94.50;;;;;;5124080;27;20024;-68
2022/03/18 10:53:57;;;;;;;5.53;1.80;;;15.60;92.20;;;;;;5116484;27;20020;-68
2022/03/18 10:56:23;;;;;;;4.30;1.40;;;14.80;91.00;;;;;;5110425;27;20080;-67
2022/03/18 10:58:48;;;;;;;2.92;1.13;;;15.80;91.80;;;;;;5096108;27;20039;-68
2022/03/18 11:01:15;;;;;;;9.10;1.67;;;16.70;89.00;;;;;;5114395;27;20416;-68
2022/03/18 11:03:44;;;;;;;5.45;1.77;;;16.10;91.30;;;;;;5115083;27;20466;-67
2022/03/18 11:06:17;;;;;;;6.15;1.80;;;15.20;92.10;;;;;;5114456;27;20050;-67
2022/03/18 11:08:47;;;;;;;6.22;2.08;;;14.50;91.80;;;;;;5116425;27;20307;-67
2022/03/18 11:11:18;;;;;;;5.72;2.17;;;14.30;91.40;;;;;;5094048;27;20495;-67
2022/03/18 11:14:06;;;;;;;8.68;2.53;;;13.70;92.00;;;;;;5110101;27;20339;-67
2022/03/18 11:16:36;;;;;;;6.20;1.90;;;13.20;93.00;;;;;;5114633;27;20027;-67
2022/03/18 11:19:05;;;;;;;3.78;1.50;;;14.40;94.10;;;;;;5119273;27;20034;-67
2022/03/18 11:21:40;;;;;;;7.53;2.15;;;14.40;93.10;;;;;;5111013;27;20498;-67
2022/03/18 11:24:12;;;;;;;5.35;1.85;;;14.90;92.30;;;;;;5116540;27;20098;-67
2022/03/18 11:26:46;;;;;;;5.40;1.60;;;15.10;92.40;;;;;;5111520;27;20106;-67
2022/03/18 11:29:19;;;;;;;7.20;1.95;;;14.60;90.60;;;;;;5098282;28;20348;-67
2022/03/18 11:32:10;;;;;;;10.80;2.00;;;15.90;90.80;;;;;;5100525;27;20034;-67
2022/03/18 11:34:59;;;;;;;6.13;2.15;;;16.60;90.00;;;;;;5103617;28;20336;-67
2022/03/18 11:37:25;;;;;;;4.93;1.77;;;15.90;88.70;;;;;;5095250;27;20478;-67
2022/03/18 11:39:52;;;;;;;6.65;1.95;;;15.60;91.10;;;;;;5111791;27;20031;-67
2022/03/18 11:42:22;;;;;;;6.38;1.98;;;15.40;90.00;;;;;;5116111;27;20027;-67
2022/03/18 11:44:58;;;;;;;5.65;2.00;;;15.00;89.30;;;;;;5095753;28;20020;-67
2022/03/18 11:47:30;;;;;;;6.88;1.98;;;14.40;90.60;;;;;;5121493;27;20023;-67
2022/03/18 11:49:57;;;;;;;5.38;1.52;;;13.80;91.10;;;;;;5113054;27;20019;-67
2022/03/18 11:52:23;;;;;;;9.43;1.90;;;14.90;91.30;;;;;;5113696;27;20489;-67
2022/03/18 11:55:06;;;;;;;8.38;2.13;;;17.00;88.70;;;;;;5116358;27;20019;-67
2022/03/18 11:57:45;;;;;;;9.85;1.98;;;18.20;85.30;;;;;;5113543;27;20035;-67
2022/03/18 12:00:33;;;;;;;7.03;1.95;;;16.00;87.70;;;;;;5107609;27;20111;-67
2022/03/18 12:03:04;;;;;;;8.52;2.10;;;17.10;87.20;;;;;;5115969;27;20023;-67
2022/03/18 12:05:31;;;;;;;4.47;1.50;;;15.60;85.90;;;;;;5111027;27;20032;-67
2022/03/18 12:07:59;;;;;;;5.47;1.80;;;16.80;89.10;;;;;;5116740;27;20117;-67
2022/03/18 12:10:34;;;;;;;5.70;1.92;;;17.70;83.40;;;;;;5112007;27;20028;-67
2022/03/18 12:13:03;;;;;;;4.85;1.50;;;20.10;78.70;;;;;;5118522;27;20041;-67
2022/03/18 12:15:32;;;;;;;6.68;1.60;;;18.00;77.20;;;;;;5116643;27;20095;-67
2022/03/18 12:17:58;;;;;;;3.85;1.42;;;17.30;76.10;;;;;;5112415;27;20019;-67
2022/03/18 12:20:30;;;;;;;7.22;2.10;;;15.80;82.90;;;;;;5088418;28;20435;-67
2022/03/18 12:22:58;;;;;;;6.05;1.52;;;16.10;83.40;;;;;;5115142;27;20130;-67
2022/03/18 12:25:24;;;;;;;5.47;1.70;;;18.10;79.40;;;;;;5115688;27;20291;-67
2022/03/18 12:27:51;;;;;;;5.28;1.50;;;17.40;78.20;;;;;;5098893;28;20126;-67
2022/03/18 12:30:19;;;;;;;5.57;1.55;;;17.70;80.40;;;;;;5096483;27;20142;-67
2022/03/18 12:33:01;;;;;;;5.80;1.60;;;17.00;75.20;;;;;;5113596;27;20027;-67
2022/03/18 12:35:30;;;;;;;9.38;1.75;;;16.80;75.60;;;;;;5107812;27;20031;-67
2022/03/18 12:38:13;;;;;;;5.30;1.55;;;17.00;75.70;;;;;;5111402;28;20051;-67
2022/03/18 12:40:56;;;;;;;5.95;1.70;;;16.70;76.90;;;;;;5112296;27;20050;-68
2022/03/18 12:43:24;;;;;;;9.15;2.10;;;17.70;76.20;;;;;;5111538;28;20075;-68
2022/03/18 12:45:50;;;;;;;4.22;1.45;;;19.10;72.30;;;;;;5113672;27;20039;-68
2022/03/18 12:48:18;;;;;;;4.85;1.73;;;17.10;73.90;;;;;;5114005;28;20016;-68
2022/03/18 12:50:46;;;;;;;5.25;1.60;;;17.70;75.20;;;;;;5111276;28;20031;-67
2022/03/18 12:53:24;;;;;;;5.97;1.50;;;17.20;75.00;;;;;;5111503;27;20535;-67
2022/03/18 12:55:51;;;;;;;4.80;1.40;;;17.40;76.30;;;;;;5117594;28;20100;-67
2022/03/18 12:58:18;;;;;;;6.30;1.70;;;16.70;73.10;;;;;;5111171;28;20023;-67
2022/03/18 13:00:55;;;;;;;7.47;2.08;;;15.80;74.40;;;;;;5087315;27;20039;-67
2022/03/18 13:03:27;;;;;;;6.82;1.98;;;15.60;75.00;;;;;;5113944;28;20023;-67
2022/03/18 13:05:55;;;;;;;6.78;1.80;;;15.30;75.30;;;;;;5111370;27;20576;-67